Flight Track Log - Related Links

Times and Time Zones

All times are in EDT time to prevent confusion due to time zone crossing. See the SWA539 flight status page for this flight to view local times or setup timezone preferences in your user account.

Time Position Orientation Groundspeed Altitude Reporting Facility
EDT Latitude Longitude Course Direction KTS MPH feet Rate Location/Type
Tue 06:39:26 PM 39.2833 -94.7333 218° Southwest 158 182 1,800  Level Kansas City TRACON
Tue 06:40:56 PM 39.2167 -94.8000 218° Southwest 217 250 5,900 2,411 Climbing Kansas City TRACON
Tue 06:41:13 PM 39.2186 -94.7961 57° Northeast 204 235 6,100 2,250 Climbing Kansas City Center
Tue 06:42:16 PM 39.1767 -94.8614 230° Southwest 224 258 8,900 2,256 Climbing Kansas City Center
Tue 06:43:18 PM 39.1439 -94.9431 243° Southwest 267 307 10,800 1,854 Climbing Kansas City Center
Tue 06:44:19 PM 39.0878 -95.0500 236° Southwest 327 376 12,700 2,380 Climbing Kansas City Center
Tue 06:45:19 PM 39.0350 -95.1536 237° Southwest 345 397 15,600 2,448 Climbing Kansas City Center
Tue 06:46:24 PM 38.9856 -95.2511 237° Southwest 348 400 17,800 2,371 Climbing Kansas City Center
Tue 06:47:23 PM 38.9222 -95.3728 236° Southwest 363 418 20,500 2,244 Climbing Kansas City Center
Tue 06:48:27 PM 38.8669 -95.4789 236° Southwest 372 428 22,400 1,872 Climbing Kansas City Center
Tue 06:49:28 PM 38.8017 -95.6067 237° Southwest 382 440 24,400 1,820 Climbing Kansas City Center
Tue 06:50:29 PM 38.7564 -95.7258 244° Southwest 386 444 26,100 1,488 Climbing Kansas City Center
Tue 06:51:33 PM 38.7353 -95.8614 259° West 404 465 27,500 1,344 Climbing Kansas City Center
Tue 06:52:34 PM 38.7125 -96.0200 260° West 404 465 28,900 1,438 Climbing Kansas City Center
Tue 06:53:34 PM 38.6933 -96.1597 260° West 411 473 30,400 1,403 Climbing Kansas City Center
Tue 06:54:38 PM 38.6694 -96.3164 259° West 404 465 31,800 1,296 Climbing Kansas City Center
Tue 06:55:39 PM 38.6489 -96.4503 259° West 401 461 33,100 1,161 Climbing Kansas City Center
Tue 06:56:42 PM 38.6439 -96.6119 268° West 409 471 34,200 1,024 Climbing Kansas City Center
Tue 06:57:42 PM 38.6419 -96.7514 269° West 409 471 35,200 893 Climbing Kansas City Center
Tue 06:58:43 PM 38.6386 -96.9128 269° West 410 472 36,000 375 Climbing Kansas City Center
Tue 06:59:50 PM 38.6522 -97.0564 277° West 414 476 36,000  Level Kansas City Center
Tue 07:00:51 PM 38.6811 -97.1983 285° West 415 478 36,000  Level Kansas City Center
Tue 07:01:52 PM 38.7117 -97.3381 286° West 411 473 36,000  Level Kansas City Center
Tue 07:02:55 PM 38.7144 -97.5044 271° West 400 460 36,000  Level Kansas City Center
Tue 07:04:00 PM 38.6648 -97.6463 246° West  Level FlightAware Approximate
Tue 07:04:59 PM 38.7081 -97.7828 246° West 408 470 36,000  Level Kansas City Center
Tue 07:06:01 PM 38.6997 -97.9425 266° West 413 475 36,000  Level Kansas City Center
Tue 07:07:02 PM 38.6814 -98.0800 260° West 396 456 36,000  Level Kansas City Center
Tue 07:08:04 PM 38.6639 -98.2172 261° West 393 452 36,000  Level Kansas City Center
Tue 07:09:04 PM 38.6461 -98.3533 261° West 392 451 36,000  Level Kansas City Center
Tue 07:10:08 PM 38.6258 -98.5178 261° West 393 452 36,000  Level Kansas City Center
Tue 07:11:08 PM 38.6081 -98.6575 261° West 399 459 36,000  Level Kansas City Center
Tue 07:12:12 PM 38.5886 -98.7978 260° West 403 464 36,000  Level Kansas City Center
Tue 07:13:12 PM 38.5697 -98.9361 260° West 399 459 36,000  Level Kansas City Center
Tue 07:14:16 PM 38.5522 -99.0736 261° West 396 456 36,000  Level Kansas City Center
Tue 07:15:17 PM 38.5331 -99.2103 260° West 393 452 36,000  Level Kansas City Center
Tue 07:16:17 PM 38.5111 -99.3733 260° West 390 449 36,000  Level Kansas City Center
Tue 07:17:21 PM 38.4922 -99.5075 260° West 386 444 36,000  Level Kansas City Center
Tue 07:18:21 PM 38.4731 -99.6547 261° West 385 443 36,000  Level Kansas City Center
Tue 07:19:25 PM 38.4539 -99.7803 259° West 380 437 36,000  Level Kansas City Center
Tue 07:20:26 PM 38.4336 -99.9278 260° West 379 436 36,000  Level Kansas City Center
Tue 07:21:05 PM 38.4217 -100.0103 260° West 379 436 36,000  Level Denver Center
Tue 07:22:07 PM 38.4025 -100.1358 259° West 377 434 36,000  Level Denver Center
Tue 07:23:08 PM 38.3819 -100.2825 260° West 378 435 36,000  Level Denver Center
Tue 07:24:10 PM 38.3639 -100.4061 259° West 373 429 36,000  Level Denver Center
Tue 07:24:34 PM 38.3578 -100.4483 260° West 374 430 36,000  Level Kansas City Center
Tue 07:25:35 PM 38.3361 -100.5942 259° West 375 432 36,000  Level Kansas City Center
Tue 07:26:13 PM 38.3239 -100.6767 259° West 377 434 36,000  Level Denver Center
Tue 07:27:15 PM 38.3044 -100.8011 259° West 378 435 36,000  Level Denver Center
Tue 07:28:16 PM 38.2828 -100.9464 259° West 376 433 36,000  Level Denver Center
Tue 07:29:18 PM 38.2639 -101.0722 259° West 380 437 36,000  Level Denver Center
Tue 07:30:19 PM 38.2406 -101.2178 259° West 378 435 36,000  Level Denver Center
Tue 07:31:21 PM 38.2222 -101.3403 259° West 371 427 36,000  Level Denver Center
Tue 07:32:22 PM 38.2000 -101.4864 259° West 377 434 36,000  Level Denver Center
Tue 07:33:24 PM 38.1803 -101.6100 259° West 375 432 36,000  Level Denver Center
Tue 07:34:25 PM 38.1614 -101.7325 259° West 373 429 36,000  Level Denver Center
Tue 07:35:27 PM 38.1381 -101.8747 258° West 369 425 36,000  Level Denver Center
Tue 07:36:28 PM 38.1222 -101.9781 259° West 372 428 36,000  Level Denver Center
Tue 07:37:29 PM 38.1014 -102.1058 258° West 381 438 36,000  Level Denver Center
Tue 07:38:43 PM 38.0692 -102.3042 258° West 398 458 36,000  Level Denver Center
Tue 07:39:45 PM 38.0433 -102.4608 258° West 405 466 36,000  Level Denver Center
Tue 07:40:46 PM 38.0197 -102.5961 258° West 410 472 36,000  Level Denver Center
Tue 07:41:48 PM 37.9922 -102.7600 258° West 420 483 36,000  Level Denver Center
Tue 07:42:49 PM 37.9686 -102.9003 258° West 426 490 36,000  Level Denver Center
Tue 07:43:51 PM 37.9456 -103.0406 258° West 427 491 36,000  Level Denver Center
Tue 07:44:53 PM 37.9164 -103.2053 257° West 429 494 36,000  Level Denver Center
Tue 07:45:54 PM 37.8917 -103.3472 258° West 431 496 36,000  Level Denver Center
Tue 07:46:56 PM 37.8636 -103.5125 258° West 432 497 36,000  Level Denver Center
Tue 07:47:57 PM 37.8383 -103.6539 257° West 431 496 36,000  Level Denver Center
Tue 07:48:59 PM 37.8131 -103.7947 257° West 431 496 36,000  Level Denver Center
Tue 07:50:00 PM 37.7844 -103.9589 258° West 432 497 36,000  Level Denver Center
Tue 07:51:02 PM 37.7589 -104.0975 257° West 429 494 36,000  Level Denver Center
Tue 07:52:03 PM 37.7297 -104.2567 257° West 423 487 36,000  Level Denver Center
Tue 07:53:05 PM 37.7050 -104.3944 257° West 423 487 36,000  Level Denver Center
Tue 07:54:06 PM 37.6756 -104.5575 257° West 427 491 36,000  Level Denver Center
Tue 07:55:08 PM 37.6497 -104.6978 257° West 430 495 36,000  Level Denver Center
Tue 07:56:10 PM 37.6192 -104.8625 257° West 432 497 36,000  Level Denver Center
Tue 07:57:11 PM 37.5917 -105.0053 256° West 436 502 36,000  Level Denver Center
Tue 07:58:13 PM 37.5600 -105.1697 256° West 431 496 36,000  Level Denver Center
Tue 07:59:14 PM 37.5339 -105.3036 256° West 438 504 36,000  Level Denver Center
Tue 08:00:16 PM 37.5022 -105.4689 256° West 436 502 36,000  Level Denver Center
Tue 08:01:18 PM 37.4753 -105.6078 256° West 428 493 36,000  Level Denver Center
Tue 08:02:19 PM 37.4417 -105.7683 255° West 428 493 36,000  Level Denver Center
Tue 08:03:21 PM 37.4153 -105.9083 257° West 431 496 36,000  Level Denver Center
Tue 08:04:22 PM 37.3867 -106.0481 256° West 432 497 36,000  Level Denver Center
Tue 08:05:24 PM 37.3531 -106.2156 256° West 441 507 36,000  Level Denver Center
Tue 08:06:26 PM 37.3242 -106.3594 256° West 444 511 36,000  Level Denver Center
Tue 08:07:27 PM 37.2906 -106.5294 256° West 450 518 36,000  Level Denver Center
Tue 08:08:29 PM 37.2608 -106.6733 255° West 447 514 36,000  Level Denver Center
Tue 08:09:31 PM 37.2428 -106.8469 263° West 456 525 36,000  Level Denver Center
Tue 08:10:32 PM 37.2792 -106.9925 287° West 458 527 36,000 195 Level Denver Center
Tue 08:11:34 PM 37.3544 -107.1431 302° West 458 527 36,400 435 Climbing Denver Center
Tue 08:12:36 PM 37.4181 -107.2722 302° West 456 525 36,900 537 Climbing Denver Center
Tue 08:13:37 PM 37.4850 -107.4022 303° West 459 528 37,500 537 Climbing Denver Center
Tue 08:14:39 PM 37.5622 -107.5531 303° West 462 532 38,000 242 Climbing Denver Center
Tue 08:15:41 PM 37.6136 -107.6886 296° West 456 525 38,000  Level Denver Center
Tue 08:16:42 PM 37.5781 -107.8614 255° West 457 526 38,000  Level Denver Center
Tue 08:17:44 PM 37.5342 -108.0033 249° West 456 525 38,000  Level Denver Center
Tue 08:18:46 PM 37.4822 -108.1694 249° West 457 526 38,000  Level Denver Center
Tue 08:19:47 PM 37.4378 -108.3114 249° West 458 527 38,000  Level Denver Center
Tue 08:20:49 PM 37.3847 -108.4761 248° West 456 525 38,000  Level Denver Center
Tue 08:21:51 PM 37.3403 -108.6167 248° West 456 525 38,000  Level Denver Center
Tue 08:22:52 PM 37.2869 -108.7833 248° West 460 529 38,000  Level Denver Center
Tue 08:23:54 PM 37.2417 -108.9239 248° West 458 527 38,000  Level Denver Center
Tue 08:24:56 PM 37.1953 -109.0642 247° West 457 526 38,000  Level Denver Center
Tue 08:25:57 PM 37.1419 -109.2289 248° West 457 526 38,000  Level Denver Center
Tue 08:26:59 PM 37.0969 -109.3683 248° West 455 524 38,000  Level Denver Center
Tue 08:28:01 PM 37.0425 -109.5294 247° West 452 520 38,000  Level Denver Center
Tue 08:29:03 PM 36.9972 -109.6658 247° West 447 514 38,000  Level Denver Center
Tue 08:30:04 PM 36.9436 -109.8275 248° West 451 519 38,000  Level Denver Center
Tue 08:31:06 PM 36.8981 -109.9658 248° West 451 519 38,000  Level Denver Center
Tue 08:32:08 PM 36.8442 -110.1269 247° West 451 519 38,000  Level Denver Center
Tue 08:33:09 PM 36.7975 -110.2653 247° West 454 522 38,000  Level Denver Center
Tue 08:34:11 PM 36.7481 -110.4111 247° West 455 524 38,000  Level Denver Center
Tue 08:35:13 PM 36.6975 -110.5586 247° West 460 529 38,000  Level Denver Center
Tue 08:36:14 PM 36.6481 -110.7036 247° West 457 526 38,000  Level Denver Center
Tue 08:37:28 PM 36.5917 -110.8772 248° West 452 520 38,000  Level Denver Center
Tue 08:38:30 PM 36.5286 -111.0519 246° West 458 527 38,000  Level Denver Center
Tue 08:39:32 PM 36.4778 -111.1975 247° West 459 528 38,000  Level Denver Center
Tue 08:40:33 PM 36.4264 -111.3436 246° West 459 528 38,000  Level Denver Center
Tue 08:41:35 PM 36.3753 -111.4897 247° West 461 531 38,000  Level Denver Center
Tue 08:42:36 PM 36.3331 -111.6050 246° West 460 529 38,000  Level Denver Center
Tue 08:43:38 PM 36.2719 -111.7797 247° West 460 529 38,000  Level Denver Center
Tue 08:44:40 PM 36.2189 -111.9258 246° West 463 533 38,000  Level Denver Center
Tue 08:45:42 PM 36.1575 -112.1008 247° West 463 533 38,000  Level Denver Center
Tue 08:46:43 PM 36.1047 -112.2439 245° Southwest 459 528 38,000  Level Denver Center
Tue 08:47:45 PM 36.0514 -112.3883 245° Southwest 461 531 38,000  Level Denver Center
Tue 08:48:49 PM 35.9983 -112.5356 246° West 461 531 38,000  Level Los Angeles Center
Tue 08:49:51 PM 35.9406 -112.6922 246° West 460 529 38,000  Level Los Angeles Center
Tue 08:50:52 PM 35.8883 -112.8358 246° West 463 533 38,000  Level Los Angeles Center
Tue 08:51:54 PM 35.8344 -112.9819 246° West 469 540 38,000  Level Los Angeles Center
Tue 08:52:56 PM 35.7800 -113.1267 245° Southwest 471 542 38,000  Level Los Angeles Center
Tue 08:53:58 PM 35.7261 -113.2722 246° West 472 543 38,000  Level Los Angeles Center
Tue 08:55:00 PM 35.6619 -113.4439 245° Southwest 467 537 38,000  Level Los Angeles Center
Tue 08:56:02 PM 35.6083 -113.5858 245° Southwest 463 533 38,000  Level Los Angeles Center
Tue 08:57:03 PM 35.5514 -113.7261 244° Southwest 464 534 38,000  Level Los Angeles Center
Tue 08:58:05 PM 35.4919 -113.8672 243° Southwest 466 536 38,000  Level Los Angeles Center
Tue 08:59:07 PM 35.4311 -114.0203 244° Southwest 465 535 38,000  Level Los Angeles Center
Tue 09:00:09 PM 35.3728 -114.1636 244° Southwest 466 536 38,000  Level Los Angeles Center
Tue 09:01:11 PM 35.3136 -114.3089 244° Southwest 473 544 38,000  Level Los Angeles Center
Tue 09:02:12 PM 35.2422 -114.4814 243° Southwest 473 544 38,000  Level Los Angeles Center
Tue 09:03:14 PM 35.1814 -114.6258 243° Southwest 476 548 38,000  Level Los Angeles Center
Tue 09:04:16 PM 35.1217 -114.7697 243° Southwest 476 548 38,000  Level Los Angeles Center
Tue 09:05:18 PM 35.0603 -114.9144 243° Southwest 477 549 38,000  Level Los Angeles Center
Tue 09:06:19 PM 35.0017 -115.0561 243° Southwest 469 540 38,000  Level Los Angeles Center
Tue 09:07:21 PM 34.9414 -115.1992 243° Southwest 471 542 38,000  Level Los Angeles Center
Tue 09:08:23 PM 34.8808 -115.3408 243° Southwest 471 542 38,000  Level Los Angeles Center
Tue 09:09:25 PM 34.8194 -115.4847 243° Southwest 475 547 38,000  Level Los Angeles Center
Tue 09:10:27 PM 34.7561 -115.6331 243° Southwest 477 549 38,000  Level Los Angeles Center
Tue 09:11:28 PM 34.6942 -115.7744 242° Southwest 475 547 38,000 -878 Level Los Angeles Center
Tue 09:12:30 PM 34.6247 -115.9372 243° Southwest 455 524 36,200 -1,355 Descending Los Angeles Center
Tue 09:13:32 PM 34.5642 -116.0797 243° Southwest 466 536 35,200 -1,113 Descending Los Angeles Center
Tue 09:14:34 PM 34.5006 -116.2217 241° Southwest 477 549 33,900 -1,951 Descending Los Angeles Center
Tue 09:15:35 PM 34.4428 -116.3542 242° Southwest 452 520 31,200 -2,439 Descending Los Angeles Center
Tue 09:16:37 PM 34.3811 -116.4958 242° Southwest 472 543 28,900 -2,274 Descending Los Angeles Center
Tue 09:17:39 PM 34.3178 -116.6364 241° Southwest 474 545 26,500 -2,226 Descending Los Angeles Center
Tue 09:18:41 PM 34.2575 -116.7728 242° Southwest 460 529 24,300 -2,032 Descending Los Angeles Center
Tue 09:19:43 PM 34.1997 -116.9039 242° Southwest 445 512 22,300 -2,244 Descending Los Angeles Center
Tue 09:20:44 PM 34.1311 -117.0564 242° Southwest 432 497 19,700 -2,343 Descending Los Angeles Center
Tue 09:21:28 PM 34.1000 -117.1500 248° West 422 486 18,200 -2,057 Descending Southern California TRACON
Tue 09:22:29 PM 34.0500 -117.2667 243° Southwest 395 455 16,100 -2,083 Descending Southern California TRACON
Tue 09:23:29 PM 34.0333 -117.4000 261° West 359 413 14,000 -1,800 Descending Southern California TRACON
Tue 09:24:29 PM 34.0333 -117.5000 270° West 321 369 12,500 -1,350 Descending Southern California TRACON
Tue 09:25:29 PM 34.0333 -117.6167 270° West 300 345 11,300 -1,286 Descending Southern California TRACON
Tue 09:26:35 PM 34.0167 -117.7167 259° West 279 321 9,800 -1,333 Descending Southern California TRACON
Tue 09:27:35 PM 34.0167 -117.8167 270° West 282 325 8,500 -1,316 Descending Southern California TRACON
Tue 09:28:29 PM 34.0000 -117.9000 256° West 278 320 7,300 -1,100 Descending Southern California TRACON
Tue 09:29:35 PM 34.0000 -118.0000 270° West 250 288 6,300 -900 Descending Southern California TRACON
Tue 09:30:29 PM 33.9833 -118.0500 248° West 217 250 5,500 -850 Descending Southern California TRACON
Tue 09:31:35 PM 33.9833 -118.1333 270° West 177 204 4,600 -884 Descending Southern California TRACON
Tue 09:32:04 PM 33.9772 -118.1539 250° West 183 211 4,100 -933 Descending Los Angeles Center
Tue 09:33:05 PM 33.9725 -118.2069 264° West 165 190 3,200 -829 Descending Los Angeles Center
Tue 09:34:07 PM 33.9667 -118.2594 262° West 162 186 2,400 -823 Descending Los Angeles Center
Tue 09:35:09 PM 33.9617 -118.3119 263° West 160 184 1,500 -780 Descending Los Angeles Center
Tue 09:36:10 PM 33.9575 -118.3617 264° West 156 180 800 -634 Descending Los Angeles Center
Tue 09:37:12 PM 33.9522 -118.4072 262° West 147 169 200 -581 Descending Los Angeles Center
Tue 09:39:00 PM 33.9425 -118.4081 259° West  Level Estimated
Tue 09:46:00 PM 33.9425 -118.4081 259° West  Level Estimated

Login

Don't have an account? Register now (free) for customized features, flight alerts, and more!